Accueil
METAR-TAF:

METAR-TAF

Aéroports :

Lugano, Suisse

Aéroport de Lugano

latitude: 46-00N, longitude: 008-58E, altitude: 273 m

Observation

Le bulletin a été fait il y a 12 minutes, à 12:20 UTC
Vent 5 kt de sud
Température 24°C
Humidité 44%
Pression 1011 hPa
Visibilité 10 km ou plus
pas de nuages en-dessous de 1500 mètres et pas de cumulonimbus.

METAR: LSZA 271220Z 19005KT CAVOK 24/11 Q1011 NOSIG

Heure: 14:32 (12:32 UTC)

Prévision

Le bulletin a été fait il y a 1 heure et 7 minutes, à 11:25 UTC
Prévision valable du 27 à 12 UTC au 27 à 21 UTC
Vent 3 kt de direction variable
Visibilité 10 km ou plus
pas de nuages en-dessous de 1500 mètres et pas de cumulonimbus.
Temporairement
du 27 à 12 UTC au 27 à 18 UTC
Visibilité 10 km ou plus
Nuages épars à une hauteur de 10000 ft

TAF: LSZA 271125Z 2712/2721 VRB03KT CAVOK TEMPO 2712/2718 9999 SCT100

Observations et prévisions météorologiques de plus de 4000 aéroports (messages METAR et TAF).

Les stations disponibles sont représentées par des disques jaunes et rouges sur la carte.

Passer la souris dessus pour voir le nom de la station.

Cliquer dessus pour voir les observations et prévisions météorologiques.

Pour changer de carte: cliquez sur les boutons verts avec une croix noire pour zoomer, sur le bouton vert avec un tiret pour effectuer un zoom arrière, ou sur les flèches vertes pour les cartes adjacentes.


METAR-TAF: